Terminal Aerodrome Forecast
Issued by NWS Atlanta, GA

Home | Current Version | Previous Version | Text Only | Print | Product List | Glossary On
Versions: 1 2 3 4 5 6 7 8 9 10 11 12 13 14 15 16
941
FTUS42 KFFC 270526
TAFCSG
TAF
KCSG 270526Z 2706/2806 00000KT P6SM SCT120
     FM271400 04008KT P6SM FEW050 SCT250
     FM280000 06003KT P6SM SKC=

USA.gov is the U.S. government's official web portal to all federal, state and local government web resources and services.